createdAt,value
2023-04-10T00:01:12.549Z,36.10
2023-04-10T00:03:41.469Z,37.20
2023-04-10T00:06:09.654Z,37.92
2023-04-10T00:08:39.118Z,38.13
2023-04-10T00:11:07.433Z,38.25
2023-04-10T00:13:35.666Z,39.67
2023-04-10T00:16:04.279Z,40.28
2023-04-10T00:18:32.270Z,39.97
2023-04-10T00:21:00.313Z,39.47
2023-04-10T00:23:28.316Z,40.85
2023-04-10T00:25:57.714Z,40.72
2023-04-10T00:28:25.794Z,42.80
2023-04-10T00:30:54.154Z,42.58
2023-04-10T00:33:22.223Z,41.40
2023-04-10T00:35:50.530Z,42.85
2023-04-10T00:38:18.562Z,42.92
2023-04-10T00:40:46.630Z,45.63
2023-04-10T00:43:16.055Z,45.25
2023-04-10T00:45:44.338Z,43.85
2023-04-10T00:48:12.488Z,45.20
2023-04-10T00:50:40.547Z,45.90
2023-04-10T00:53:08.592Z,43.80
2023-04-10T00:55:36.999Z,44.13
2023-04-10T00:58:05.003Z,46.50
2023-04-10T01:00:34.469Z,48.90
2023-04-10T01:03:02.657Z,48.35
2023-04-10T01:05:40.715Z,47.92
2023-04-10T01:08:13.732Z,49.70
2023-04-10T01:10:48.077Z,50.78
2023-04-10T01:13:22.137Z,52.78
2023-04-10T01:15:58.859Z,52.90
2023-04-10T01:18:33.277Z,53.47
2023-04-10T01:21:03.858Z,54.95
2023-04-10T01:23:56.370Z,52.25
2023-04-10T01:26:37.995Z,54.05
2023-04-10T01:29:09.769Z,52.88
2023-04-10T01:31:40.427Z,53.10
2023-04-10T01:34:11.363Z,55.33
2023-04-10T01:36:44.257Z,55.50
2023-04-10T01:39:12.382Z,51.88
2023-04-10T01:41:42.545Z,55.08
2023-04-10T01:44:15.145Z,54.03
2023-04-10T01:46:45.481Z,55.58
2023-04-10T01:49:13.957Z,58.97
2023-04-10T01:51:42.372Z,58.30
2023-04-10T01:54:10.578Z,57.47
2023-04-10T01:56:38.812Z,59.05
2023-04-10T01:59:06.903Z,58.72
2023-04-10T02:01:36.288Z,61.53
2023-04-10T02:04:04.791Z,59.90
2023-04-10T02:06:40.341Z,61.22
2023-04-10T02:09:14.703Z,58.88
2023-04-10T02:11:48.772Z,57.35
2023-04-10T02:14:19.105Z,61.35
2023-04-10T02:16:50.124Z,60.25
2023-04-10T02:19:19.434Z,61.17
2023-04-10T02:21:48.196Z,58.17
2023-04-10T02:24:16.347Z,58.70
2023-04-10T02:26:47.923Z,57.63
2023-04-10T02:29:16.174Z,58.70
2023-04-10T02:31:45.177Z,59.47
2023-04-10T02:34:14.675Z,61.10
2023-04-10T02:36:42.747Z,63.00
2023-04-10T02:39:11.123Z,62.22
2023-04-10T02:41:39.239Z,59.22
2023-04-10T02:44:07.309Z,61.03
2023-04-10T02:46:35.429Z,60.88
2023-04-10T02:49:03.463Z,60.97
2023-04-10T02:51:36.214Z,59.55
2023-04-10T02:54:04.456Z,61.03
2023-04-10T02:56:34.642Z,59.45
2023-04-10T02:59:02.723Z,59.20
2023-04-10T03:01:30.927Z,58.60
2023-04-10T03:03:59.358Z,58.80
2023-04-10T03:06:28.145Z,58.40
2023-04-10T03:08:57.757Z,58.35
2023-04-10T03:11:26.012Z,59.60
2023-04-10T03:13:54.369Z,58.30
2023-04-10T03:16:22.758Z,63.17
2023-04-10T03:18:50.983Z,60.75
2023-04-10T03:21:19.055Z,57.47
2023-04-10T03:23:47.449Z,61.40
2023-04-10T03:26:16.966Z,58.60
2023-04-10T03:28:44.993Z,59.55
2023-04-10T03:31:13.367Z,59.63
2023-04-10T03:33:41.502Z,58.50
2023-04-10T03:36:10.345Z,59.97
2023-04-10T03:38:38.400Z,57.60
2023-04-10T03:41:07.113Z,56.20
2023-04-10T03:43:36.556Z,53.33
2023-04-10T03:46:04.618Z,54.95
2023-04-10T03:48:33.548Z,55.50
2023-04-10T03:51:01.530Z,57.03
2023-04-10T03:53:29.705Z,58.90
2023-04-10T03:55:57.736Z,55.08
2023-04-10T03:58:25.876Z,57.15
2023-04-10T04:00:55.521Z,54.80
2023-04-10T04:03:23.695Z,56.08
2023-04-10T04:05:52.216Z,58.35
2023-04-10T04:08:20.308Z,56.00
2023-04-10T04:10:48.363Z,52.35
2023-04-10T04:13:16.417Z,52.97
2023-04-10T04:15:44.557Z,51.10
2023-04-10T04:18:13.879Z,56.65
2023-04-10T04:20:41.907Z,58.47
2023-04-10T04:23:09.932Z,59.60
2023-04-10T04:25:37.979Z,57.05
2023-04-10T04:28:06.393Z,56.97
2023-04-10T04:30:34.504Z,57.50
2023-04-10T04:33:02.788Z,54.25
2023-04-10T04:35:32.197Z,55.75
2023-04-10T04:38:00.413Z,56.63
2023-04-10T04:40:28.434Z,55.45
2023-04-10T04:42:56.500Z,57.67
2023-04-10T04:45:24.850Z,54.42
2023-04-10T04:47:52.920Z,56.85
2023-04-10T04:50:20.953Z,60.88
2023-04-10T04:52:50.569Z,61.03
2023-04-10T04:55:18.795Z,61.10
2023-04-10T04:57:46.811Z,60.90
2023-04-10T05:00:15.406Z,58.25
2023-04-10T05:02:43.523Z,60.13
2023-04-10T05:05:11.684Z,59.17
2023-04-10T05:07:39.724Z,54.97
2023-04-10T05:10:10.041Z,55.22
2023-04-10T05:12:38.110Z,53.08
2023-04-10T05:15:07.529Z,51.47
2023-04-10T05:17:35.648Z,47.70
2023-04-10T05:20:04.275Z,45.15
2023-04-10T05:22:32.511Z,43.42
2023-04-10T05:25:00.701Z,41.90
2023-04-10T05:27:30.211Z,41.08
2023-04-10T05:29:58.335Z,39.75
2023-04-10T05:32:26.471Z,38.90
2023-04-10T05:34:54.504Z,36.03
2023-04-10T05:37:22.667Z,38.42
2023-04-10T05:39:50.725Z,35.42
2023-04-10T05:42:18.798Z,35.40
2023-04-10T05:44:48.210Z,35.58
2023-04-10T05:47:16.254Z,33.67
2023-04-10T05:49:44.323Z,33.92
2023-04-10T05:52:12.401Z,32.63
2023-04-10T05:54:40.734Z,33.20
2023-04-10T05:57:08.749Z,32.35
2023-04-10T05:59:36.821Z,33.55
2023-04-10T06:02:06.213Z,34.70
2023-04-10T06:04:34.452Z,34.13
2023-04-10T06:07:02.561Z,35.42
2023-04-10T06:09:30.720Z,35.75
2023-04-10T06:11:58.784Z,35.58
2023-04-10T06:14:27.267Z,38.88
2023-04-10T06:16:55.518Z,38.95
2023-04-10T06:19:24.980Z,38.03
2023-04-10T06:21:54.515Z,40.00
2023-04-10T06:24:22.977Z,39.67
2023-04-10T06:26:50.998Z,43.00
2023-04-10T06:29:19.081Z,43.20
2023-04-10T06:31:47.105Z,41.92
2023-04-10T06:34:15.290Z,44.28
2023-04-10T06:36:44.869Z,41.78
2023-04-10T06:39:12.864Z,40.75
2023-04-10T06:41:40.850Z,40.83
2023-04-10T06:44:08.919Z,37.65
2023-04-10T06:46:36.977Z,37.35
2023-04-10T06:49:05.076Z,38.92
2023-04-10T06:51:33.073Z,37.50
2023-04-10T06:54:02.507Z,35.65
2023-04-10T06:56:30.546Z,34.85
2023-04-10T06:58:58.703Z,32.50
2023-04-10T07:01:26.824Z,31.15
2023-04-10T07:03:56.033Z,30.05
2023-04-10T07:06:24.128Z,30.65
2023-04-10T07:08:52.438Z,28.77
2023-04-10T07:11:22.136Z,28.17
2023-04-10T07:13:53.950Z,25.23
2023-04-10T07:16:22.048Z,27.33
2023-04-10T07:18:50.101Z,26.17
2023-04-10T07:21:18.104Z,26.50
2023-04-10T07:23:46.232Z,26.98
2023-04-10T07:26:14.642Z,26.73
2023-04-10T07:28:44.404Z,25.88
2023-04-10T07:31:13.829Z,27.60
2023-04-10T07:33:43.017Z,26.20
2023-04-10T07:36:11.333Z,26.58
2023-04-10T07:38:39.637Z,25.85
2023-04-10T07:41:07.950Z,25.77
2023-04-10T07:43:36.426Z,26.38
2023-04-10T07:46:06.163Z,25.92
2023-04-10T07:48:34.244Z,25.90
2023-04-10T07:51:03.088Z,29.38
2023-04-10T07:53:31.382Z,26.17
2023-04-10T07:55:59.453Z,27.15
2023-04-10T07:58:27.600Z,26.27
2023-04-10T08:00:56.152Z,26.88
2023-04-10T08:03:25.812Z,26.10
2023-04-10T08:05:53.966Z,27.02
2023-04-10T08:08:22.000Z,28.85
2023-04-10T08:10:50.522Z,25.85
2023-04-10T08:13:18.532Z,26.75
2023-04-10T08:15:46.858Z,27.08
2023-04-10T08:18:14.944Z,26.20
2023-04-10T08:20:44.386Z,27.00
2023-04-10T08:23:19.652Z,25.92
2023-04-10T08:25:48.284Z,25.67
2023-04-10T08:28:16.323Z,26.38
2023-04-10T08:30:44.805Z,25.63
2023-04-10T08:33:12.921Z,26.17
2023-04-10T08:35:41.024Z,26.80
2023-04-10T08:38:14.097Z,27.50
2023-04-10T08:40:44.445Z,26.58
2023-04-10T08:43:12.635Z,24.48
2023-04-10T08:45:41.625Z,24.20
2023-04-10T08:48:12.258Z,23.83
2023-04-10T08:50:44.396Z,24.38
2023-04-10T08:53:14.901Z,23.80
2023-04-10T08:55:43.433Z,22.40
2023-04-10T08:58:13.706Z,23.45
2023-04-10T09:00:41.831Z,22.33
2023-04-10T09:03:11.881Z,22.98
2023-04-10T09:05:40.128Z,21.85
2023-04-10T09:08:08.808Z,20.13
2023-04-10T09:10:38.420Z,21.65
2023-04-10T09:13:06.498Z,20.92
2023-04-10T09:15:56.832Z,19.67
2023-04-10T09:18:42.743Z,19.90
2023-04-10T09:21:11.786Z,19.67
2023-04-10T09:23:40.206Z,18.95
2023-04-10T09:29:03.518Z,18.85
2023-04-10T09:31:33.478Z,18.65
2023-04-10T09:34:13.109Z,18.20
2023-04-10T09:36:42.605Z,18.95
2023-04-10T09:39:12.765Z,19.20
2023-04-10T09:41:49.444Z,18.20
2023-04-10T09:44:20.742Z,18.02
2023-04-10T09:46:49.717Z,17.73
2023-04-10T09:49:18.239Z,17.73
2023-04-10T09:51:47.566Z,15.73
2023-04-10T09:54:16.894Z,18.15
2023-04-10T09:56:46.681Z,18.63
2023-04-10T09:59:14.997Z,15.25
2023-04-10T10:01:45.647Z,14.02
2023-04-10T10:04:17.391Z,14.68
2023-04-10T10:06:46.095Z,14.73
2023-04-10T10:09:14.263Z,12.50
2023-04-10T10:11:42.289Z,12.98
2023-04-10T10:14:15.014Z,14.43
2023-04-10T10:16:47.811Z,13.25
2023-04-10T10:19:21.174Z,12.45
2023-04-10T10:21:49.552Z,12.63
2023-04-10T10:24:18.869Z,12.07
2023-04-10T10:26:48.640Z,11.18
2023-04-10T10:29:18.694Z,10.38
2023-04-10T10:31:49.545Z,9.18
2023-04-10T10:34:17.944Z,8.85
2023-04-10T10:36:46.051Z,9.90
2023-04-10T10:39:24.757Z,8.85
2023-04-10T10:42:00.055Z,9.75
2023-04-10T10:44:34.858Z,11.48
2023-04-10T10:47:09.678Z,10.25
2023-04-10T10:49:53.630Z,9.90
2023-04-10T10:52:47.946Z,10.70
2023-04-10T10:55:37.987Z,11.73
2023-04-10T10:58:07.768Z,10.30
2023-04-10T11:01:10.738Z,11.30
2023-04-10T11:03:41.081Z,10.88
2023-04-10T11:06:09.661Z,12.90
2023-04-10T11:08:44.617Z,12.38
2023-04-10T11:11:17.849Z,13.90
2023-04-10T11:14:19.576Z,13.68
2023-04-10T11:16:48.672Z,13.20
2023-04-10T11:19:22.628Z,11.88
2023-04-10T11:22:07.457Z,14.75
2023-04-10T11:25:00.315Z,13.25
2023-04-10T11:27:48.707Z,14.43
2023-04-10T11:30:30.640Z,14.32
2023-04-10T11:33:00.584Z,14.07
2023-04-10T11:35:36.657Z,13.65
2023-04-10T11:38:12.529Z,14.50
2023-04-10T11:41:05.331Z,14.00
2023-04-10T11:43:35.285Z,14.30
2023-04-10T11:46:06.230Z,14.82
2023-04-10T11:48:37.086Z,14.30
2023-04-10T11:51:14.688Z,16.53
2023-04-10T11:53:43.177Z,73.80
2023-04-10T11:56:18.654Z,126.30
2023-04-10T11:58:51.123Z,170.70
2023-04-10T12:01:23.071Z,44.35
2023-04-10T12:03:52.485Z,142.55
2023-04-10T12:06:24.603Z,51.92
2023-04-10T12:08:54.677Z,76.63
2023-04-10T12:11:25.230Z,39.58
2023-04-10T12:13:54.374Z,44.53
2023-04-10T12:16:22.876Z,22.33
2023-04-10T12:18:52.726Z,25.40
2023-04-10T12:21:22.917Z,19.17
2023-04-10T12:23:52.480Z,14.43
2023-04-10T12:26:21.698Z,14.13
2023-04-10T12:28:54.668Z,12.27
2023-04-10T12:31:29.754Z,13.18
2023-04-10T12:33:58.617Z,12.70
2023-04-10T12:36:35.362Z,12.27
2023-04-10T12:39:05.312Z,12.20
2023-04-10T12:41:35.479Z,11.38
2023-04-10T12:44:11.348Z,10.98
2023-04-10T12:46:40.252Z,10.90
2023-04-10T12:49:12.977Z,10.60
2023-04-10T12:51:58.955Z,10.18
2023-04-10T12:54:29.608Z,10.32
2023-04-10T12:56:59.329Z,11.20
2023-04-10T12:59:27.908Z,10.77
2023-04-10T13:01:56.633Z,11.93
2023-04-10T13:04:24.906Z,11.88
2023-04-10T13:06:54.719Z,11.10
2023-04-10T13:09:26.317Z,10.63
2023-04-10T13:11:55.380Z,11.27
2023-04-10T13:14:26.244Z,10.55
2023-04-10T13:16:54.812Z,9.85
2023-04-10T13:19:23.294Z,10.20
2023-04-10T13:21:52.074Z,10.18
2023-04-10T13:24:24.101Z,10.18
2023-04-10T13:26:55.054Z,9.85
2023-04-10T13:29:23.375Z,9.50
2023-04-10T13:31:51.512Z,9.70
2023-04-10T13:34:19.608Z,10.88
2023-04-10T13:36:50.813Z,10.52
2023-04-10T13:39:19.559Z,11.25
2023-04-10T13:41:49.165Z,9.75
2023-04-10T13:44:17.216Z,10.00
2023-04-10T13:46:46.628Z,9.77
2023-04-10T13:49:17.091Z,10.27
2023-04-10T13:51:45.800Z,10.02
2023-04-10T13:54:14.092Z,11.00
2023-04-10T13:56:42.263Z,10.93
2023-04-10T13:59:11.887Z,10.88
2023-04-10T14:01:40.210Z,11.13
2023-04-10T14:04:09.108Z,11.02
2023-04-10T14:06:37.918Z,11.25
2023-04-10T14:09:07.292Z,11.20
2023-04-10T14:11:37.405Z,11.25
2023-04-10T14:14:05.976Z,11.15
2023-04-10T14:16:38.119Z,10.35
2023-04-10T14:19:06.910Z,10.50
2023-04-10T14:21:35.305Z,10.32
2023-04-10T14:24:03.684Z,10.95
2023-04-10T14:26:32.436Z,10.68
2023-04-10T14:29:01.079Z,10.65
2023-04-10T14:31:31.960Z,11.80
2023-04-10T14:34:01.872Z,10.48
2023-04-10T14:36:29.921Z,11.25
2023-04-10T14:38:58.318Z,9.88
2023-04-10T14:41:27.083Z,10.07
2023-04-10T14:43:55.341Z,10.27
2023-04-10T14:46:25.652Z,10.63
2023-04-10T14:48:53.784Z,9.95
2023-04-10T14:51:26.373Z,10.40
2023-04-10T14:53:57.535Z,8.73
2023-04-10T14:56:28.692Z,9.75
2023-04-10T14:59:05.069Z,9.40
2023-04-10T15:01:38.430Z,10.20
2023-04-10T15:04:07.105Z,9.10
2023-04-10T15:06:36.846Z,8.95
2023-04-10T15:09:05.072Z,8.85
2023-04-10T15:11:34.282Z,7.93
2023-04-10T15:14:03.214Z,9.15
2023-04-10T15:16:32.165Z,8.57
2023-04-10T15:19:00.542Z,8.25
2023-04-10T15:21:28.633Z,8.98
2023-04-10T15:23:58.670Z,8.25
2023-04-10T15:26:26.992Z,9.13
2023-04-10T15:28:56.178Z,9.40
2023-04-10T15:31:24.903Z,9.10
2023-04-10T15:33:53.863Z,9.02
2023-04-10T15:36:23.820Z,8.60
2023-04-10T15:38:53.726Z,7.85
2023-04-10T15:41:24.189Z,7.72
2023-04-10T15:43:58.451Z,8.82
2023-04-10T15:46:27.725Z,8.65
2023-04-10T15:48:58.283Z,8.68
2023-04-10T15:51:27.400Z,8.18
2023-04-10T15:53:56.762Z,7.65
2023-04-10T15:56:28.667Z,8.73
2023-04-10T15:58:56.611Z,8.75
2023-04-10T16:01:25.304Z,8.68
2023-04-10T16:03:53.773Z,8.75
2023-04-10T16:06:26.030Z,7.95
2023-04-10T16:08:54.083Z,8.57
2023-04-10T16:11:22.051Z,9.30
2023-04-10T16:13:51.685Z,8.73
2023-04-10T16:16:20.819Z,8.73
2023-04-10T16:18:48.918Z,8.35
2023-04-10T16:21:17.190Z,8.80
2023-04-10T16:23:45.314Z,7.50
2023-04-10T16:26:13.553Z,7.97
2023-04-10T16:28:41.766Z,8.35
2023-04-10T16:31:11.979Z,9.68
2023-04-10T16:33:42.558Z,7.72
2023-04-10T16:36:12.398Z,7.72
2023-04-10T16:38:40.893Z,8.10
2023-04-10T16:41:12.697Z,7.95
2023-04-10T16:43:40.787Z,8.73
2023-04-10T16:46:11.548Z,8.43
2023-04-10T16:48:41.101Z,7.65
2023-04-10T16:51:17.516Z,7.93
2023-04-10T16:53:46.233Z,7.82
2023-04-10T16:56:14.270Z,7.50
2023-04-10T16:58:43.765Z,7.93
2023-04-10T17:01:18.299Z,7.50
2023-04-10T17:03:49.137Z,8.20
2023-04-10T17:06:18.195Z,7.30
2023-04-10T17:08:46.578Z,7.75
2023-04-10T17:11:14.963Z,7.65
2023-04-10T17:13:43.797Z,8.00
2023-04-10T17:16:12.090Z,7.05
2023-04-10T17:18:40.131Z,7.68
2023-04-10T17:21:13.250Z,7.00
2023-04-10T17:23:42.350Z,7.15
2023-04-10T17:26:14.380Z,7.75
2023-04-10T17:28:44.856Z,7.45
2023-04-10T17:31:13.661Z,6.40
2023-04-10T17:33:43.022Z,8.00
2023-04-10T17:36:13.728Z,7.63
2023-04-10T17:38:44.165Z,7.50
2023-04-10T17:41:15.573Z,7.90
2023-04-10T17:43:44.168Z,7.80
2023-04-10T17:46:16.638Z,7.40
2023-04-10T17:48:45.204Z,7.87
2023-04-10T17:51:14.590Z,7.47
2023-04-10T17:53:42.691Z,7.65
2023-04-10T17:56:18.253Z,7.45
2023-04-10T17:58:46.586Z,7.15
2023-04-10T18:01:22.225Z,7.57
2023-04-10T18:03:50.406Z,7.40
2023-04-10T18:06:20.753Z,8.07
2023-04-10T18:08:49.016Z,7.03
2023-04-10T18:11:19.193Z,7.97
2023-04-10T18:13:47.860Z,8.25
2023-04-10T18:16:16.312Z,8.60
2023-04-10T18:18:44.437Z,7.80
2023-04-10T18:21:13.840Z,8.10
2023-04-10T18:23:45.043Z,7.53
2023-04-10T18:26:14.472Z,8.40
2023-04-10T18:28:46.497Z,7.90
2023-04-10T18:31:16.826Z,8.32
2023-04-10T18:33:45.666Z,7.97
2023-04-10T18:36:18.397Z,9.10
2023-04-10T18:38:48.428Z,8.40
2023-04-10T18:41:16.514Z,8.18
2023-04-10T18:43:51.268Z,8.05
2023-04-10T18:46:30.132Z,9.30
2023-04-10T18:48:58.274Z,8.90
2023-04-10T18:51:28.932Z,8.45
2023-04-10T18:53:58.842Z,8.93
2023-04-10T18:56:27.079Z,7.53
2023-04-10T18:58:55.490Z,8.20
2023-04-10T19:01:24.556Z,8.75
2023-04-10T19:03:54.955Z,8.10
2023-04-10T19:06:24.306Z,7.38
2023-04-10T19:08:52.556Z,7.90
2023-04-10T19:11:22.887Z,8.60
2023-04-10T19:13:51.056Z,7.95
2023-04-10T19:16:20.514Z,8.05
2023-04-10T19:18:49.011Z,7.38
2023-04-10T19:21:17.315Z,7.97
2023-04-10T19:23:46.726Z,8.00
2023-04-10T19:26:14.813Z,7.47
2023-04-10T19:28:44.172Z,8.05
2023-04-10T19:31:12.551Z,7.13
2023-04-10T19:33:42.842Z,7.32
2023-04-10T19:36:11.706Z,7.55
2023-04-10T19:38:41.060Z,7.07
2023-04-10T19:41:16.872Z,7.47
2023-04-10T19:43:46.325Z,7.22
2023-04-10T19:46:17.992Z,6.32
2023-04-10T19:48:46.593Z,6.93
2023-04-10T19:51:14.711Z,6.78
2023-04-10T19:53:43.581Z,6.85
2023-04-10T19:56:11.605Z,6.63
2023-04-10T19:58:41.630Z,7.10
2023-04-10T20:01:12.459Z,7.22
2023-04-10T20:03:41.323Z,6.60
2023-04-10T20:06:10.513Z,6.40
2023-04-10T20:08:38.736Z,6.00
2023-04-10T20:11:08.335Z,6.15
2023-04-10T20:13:36.487Z,6.07
2023-04-10T20:16:04.638Z,6.55
2023-04-10T20:18:36.689Z,6.60
2023-04-10T20:21:07.593Z,6.22
2023-04-10T20:23:35.996Z,6.00
2023-04-10T20:26:05.425Z,6.15
2023-04-10T20:28:36.699Z,5.90
2023-04-10T20:31:04.880Z,6.47
2023-04-10T20:33:34.125Z,6.50
2023-04-10T20:36:03.764Z,5.65
2023-04-10T20:38:32.070Z,6.10
2023-04-10T20:41:00.108Z,6.47
2023-04-10T20:43:28.126Z,6.43
2023-04-10T20:45:56.565Z,6.72
2023-04-10T20:48:24.668Z,6.15
2023-04-10T20:50:52.668Z,6.55
2023-04-10T20:53:22.198Z,6.43
2023-04-10T20:55:52.397Z,6.30
2023-04-10T20:58:20.682Z,6.28
2023-04-10T21:00:48.769Z,6.55
2023-04-10T21:03:17.055Z,6.95
2023-04-10T21:05:45.566Z,6.60
2023-04-10T21:08:14.813Z,6.30
2023-04-10T21:10:44.994Z,6.40
2023-04-10T21:13:14.217Z,6.25
2023-04-10T21:15:43.014Z,6.75
2023-04-10T21:18:11.113Z,7.13
2023-04-10T21:20:40.582Z,6.53
2023-04-10T21:23:08.890Z,6.65
2023-04-10T21:25:37.481Z,6.65
2023-04-10T21:28:06.828Z,7.65
2023-04-10T21:30:35.032Z,6.95
2023-04-10T21:33:03.364Z,6.38
2023-04-10T21:35:31.388Z,6.65
2023-04-10T21:38:01.995Z,6.90
2023-04-10T21:40:34.596Z,6.40
2023-04-10T21:43:03.811Z,6.85
2023-04-10T21:45:34.583Z,6.47
2023-04-10T21:48:03.021Z,6.88
2023-04-10T21:50:31.242Z,7.43
2023-04-10T21:53:00.319Z,6.53
2023-04-10T21:55:29.401Z,7.15
2023-04-10T21:57:59.543Z,6.93
2023-04-10T22:00:28.838Z,7.10
2023-04-10T22:02:58.667Z,6.75
2023-04-10T22:05:27.626Z,6.82
2023-04-10T22:07:56.905Z,7.40
2023-04-10T22:10:27.374Z,7.30
2023-04-10T22:12:55.584Z,6.70
2023-04-10T22:15:23.864Z,7.45
2023-04-10T22:17:52.961Z,7.60
2023-04-10T22:20:22.527Z,7.35
2023-04-10T22:22:50.939Z,6.97
2023-04-10T22:25:19.295Z,8.18
2023-04-10T22:27:48.412Z,7.07
2023-04-10T22:30:17.601Z,7.53
2023-04-10T22:32:45.616Z,6.97
2023-04-10T22:35:13.758Z,6.93
2023-04-10T22:37:44.467Z,6.80
2023-04-10T22:40:12.900Z,6.80
2023-04-10T22:42:41.128Z,7.25
2023-04-10T22:45:11.359Z,7.45
2023-04-10T22:47:40.350Z,7.13
2023-04-10T22:50:10.838Z,7.32
2023-04-10T22:52:39.551Z,7.53
2023-04-10T22:55:10.336Z,7.75
2023-04-10T22:57:38.356Z,7.13
2023-04-10T23:00:09.996Z,6.97
2023-04-10T23:02:38.116Z,7.65
2023-04-10T23:05:08.460Z,7.55
2023-04-10T23:07:37.097Z,7.20
2023-04-10T23:10:06.032Z,7.07
2023-04-10T23:12:35.453Z,7.32
2023-04-10T23:15:05.111Z,7.72
2023-04-10T23:17:33.170Z,8.27
2023-04-10T23:20:01.671Z,7.05
2023-04-10T23:22:32.309Z,7.53
2023-04-10T23:25:00.607Z,7.70
2023-04-10T23:27:29.064Z,7.40
2023-04-10T23:29:58.369Z,7.35
2023-04-10T23:32:26.710Z,7.32
2023-04-10T23:34:54.890Z,7.95
2023-04-10T23:37:23.081Z,7.65
2023-04-10T23:39:51.428Z,7.47
2023-04-10T23:42:20.123Z,7.80
2023-04-10T23:44:48.200Z,7.22
2023-04-10T23:47:17.632Z,7.57
2023-04-10T23:49:45.771Z,7.50
2023-04-10T23:52:15.821Z,7.85
2023-04-10T23:54:44.594Z,7.38
2023-04-10T23:57:14.715Z,8.00
2023-04-10T23:59:42.793Z,6.95
